createdAt,value
2022-11-25T00:01:29.795Z,53.37
2022-11-25T00:03:59.526Z,53.44
2022-11-25T00:06:30.556Z,53.51
2022-11-25T00:09:00.449Z,53.10
2022-11-25T00:11:29.358Z,53.18
2022-11-25T00:13:58.773Z,53.14
2022-11-25T00:16:27.605Z,53.06
2022-11-25T00:18:57.515Z,53.27
2022-11-25T00:21:27.237Z,53.31
2022-11-25T00:23:58.518Z,53.36
2022-11-25T00:26:28.592Z,53.41
2022-11-25T00:28:59.730Z,53.17
2022-11-25T00:31:29.662Z,52.96
2022-11-25T00:33:58.919Z,53.34
2022-11-25T00:36:28.682Z,53.36
2022-11-25T00:39:00.113Z,53.17
2022-11-25T00:41:46.987Z,53.46
2022-11-25T00:44:35.075Z,53.48
2022-11-25T00:47:03.913Z,53.19
2022-11-25T00:49:32.468Z,53.22
2022-11-25T00:52:00.967Z,53.45
2022-11-25T00:54:30.826Z,53.44
2022-11-25T00:56:59.755Z,53.29
2022-11-25T00:59:28.717Z,53.13
2022-11-25T01:01:57.235Z,53.01
2022-11-25T01:04:25.587Z,53.36
2022-11-25T01:06:56.846Z,53.04
2022-11-25T01:09:25.555Z,52.75
2022-11-25T01:11:55.318Z,53.17
2022-11-25T01:14:24.459Z,52.79
2022-11-25T01:16:53.129Z,53.06
2022-11-25T01:19:22.078Z,52.84
2022-11-25T01:21:50.492Z,52.89
2022-11-25T01:24:19.133Z,52.96
2022-11-25T01:26:47.630Z,53.19
2022-11-25T01:29:18.719Z,52.91
2022-11-25T01:31:48.249Z,53.29
2022-11-25T01:34:19.202Z,53.23
2022-11-25T01:36:47.928Z,53.23
2022-11-25T01:39:18.932Z,52.92
2022-11-25T01:41:48.207Z,53.31
2022-11-25T01:44:19.582Z,52.90
2022-11-25T01:46:55.665Z,52.83
2022-11-25T01:49:29.784Z,53.10
2022-11-25T01:52:01.913Z,52.84
2022-11-25T01:54:34.678Z,52.98
2022-11-25T01:57:06.964Z,52.84
2022-11-25T01:59:41.023Z,52.80
2022-11-25T02:02:10.003Z,52.89
2022-11-25T02:04:39.587Z,53.21
2022-11-25T02:07:10.992Z,53.02
2022-11-25T02:09:40.663Z,52.56
2022-11-25T02:12:09.253Z,52.84
2022-11-25T02:14:39.364Z,52.48
2022-11-25T02:17:07.958Z,53.14
2022-11-25T02:19:46.642Z,53.12
2022-11-25T02:22:21.143Z,52.69
2022-11-25T02:24:52.833Z,53.15
2022-11-25T02:27:22.610Z,52.89
2022-11-25T02:29:51.521Z,52.62
2022-11-25T02:32:23.388Z,53.00
2022-11-25T02:34:51.711Z,52.70
2022-11-25T02:37:22.809Z,52.99
2022-11-25T02:39:52.266Z,52.60
2022-11-25T02:42:22.856Z,52.66
2022-11-25T02:44:51.251Z,52.92
2022-11-25T02:47:19.691Z,53.01
2022-11-25T02:49:48.093Z,52.90
2022-11-25T02:52:16.550Z,53.07
2022-11-25T02:54:44.961Z,52.66
2022-11-25T02:57:13.438Z,52.91
2022-11-25T02:59:43.264Z,52.77
2022-11-25T03:02:11.774Z,52.67
2022-11-25T03:04:40.228Z,52.86
2022-11-25T03:07:08.736Z,52.36
2022-11-25T03:09:37.142Z,52.86
2022-11-25T03:12:20.928Z,52.88
2022-11-25T03:14:57.308Z,52.82
2022-11-25T03:17:25.733Z,52.54
2022-11-25T03:19:55.949Z,52.78
2022-11-25T03:22:24.718Z,52.37
2022-11-25T03:24:53.109Z,52.78
2022-11-25T03:27:21.978Z,52.80
2022-11-25T03:29:50.746Z,52.39
2022-11-25T03:32:20.998Z,52.87
2022-11-25T03:34:49.377Z,52.35
2022-11-25T03:37:18.492Z,52.79
2022-11-25T03:39:47.008Z,52.83
2022-11-25T03:42:15.586Z,52.36
2022-11-25T03:44:44.573Z,52.80
2022-11-25T03:47:13.136Z,52.84
2022-11-25T03:49:42.876Z,52.43
2022-11-25T03:52:11.988Z,52.85
2022-11-25T03:54:40.580Z,52.65
2022-11-25T03:57:21.346Z,52.74
2022-11-25T03:59:49.835Z,52.69
2022-11-25T04:02:19.449Z,52.78
2022-11-25T04:04:50.183Z,52.73
2022-11-25T04:07:19.711Z,52.66
2022-11-25T04:09:49.408Z,52.43
2022-11-25T04:12:38.252Z,52.58
2022-11-25T04:15:10.190Z,52.54
2022-11-25T04:17:40.972Z,52.44
2022-11-25T04:20:12.214Z,52.32
2022-11-25T04:22:42.601Z,52.87
2022-11-25T04:25:12.753Z,52.54
2022-11-25T04:27:41.178Z,52.65
2022-11-25T04:30:10.588Z,52.79
2022-11-25T04:32:41.815Z,52.43
2022-11-25T04:35:13.177Z,52.61
2022-11-25T04:37:45.581Z,52.72
2022-11-25T04:40:15.563Z,52.73
2022-11-25T04:42:48.993Z,52.93
2022-11-25T04:45:23.716Z,52.24
2022-11-25T04:47:54.549Z,52.22
2022-11-25T04:50:25.466Z,52.71
2022-11-25T04:53:07.847Z,52.55
2022-11-25T04:55:36.298Z,52.31
2022-11-25T04:58:11.293Z,52.62
2022-11-25T05:00:41.301Z,52.65
2022-11-25T05:03:12.087Z,52.19
2022-11-25T05:05:42.515Z,52.24
2022-11-25T05:08:10.966Z,52.26
2022-11-25T05:10:40.558Z,52.42
2022-11-25T05:13:09.954Z,52.54
2022-11-25T05:15:38.302Z,52.88
2022-11-25T05:18:09.299Z,52.76
2022-11-25T05:20:46.635Z,52.62
2022-11-25T05:23:18.124Z,52.62
2022-11-25T05:25:46.602Z,52.78
2022-11-25T05:28:32.485Z,52.41
2022-11-25T05:31:00.898Z,52.60
2022-11-25T05:33:29.790Z,52.57
2022-11-25T05:36:00.617Z,52.36
2022-11-25T05:38:39.668Z,52.24
2022-11-25T05:41:11.015Z,52.85
2022-11-25T05:43:41.296Z,52.67
2022-11-25T05:46:10.190Z,52.64
2022-11-25T05:48:44.832Z,52.43
2022-11-25T05:51:14.640Z,52.64
2022-11-25T05:53:43.122Z,52.38
2022-11-25T05:56:11.805Z,52.35
2022-11-25T05:59:04.341Z,52.46
2022-11-25T06:01:44.733Z,52.78
2022-11-25T06:04:13.199Z,52.72
2022-11-25T06:06:42.994Z,52.20
2022-11-25T06:09:11.571Z,52.57
2022-11-25T06:11:40.113Z,52.40
2022-11-25T06:14:09.971Z,52.26
2022-11-25T06:16:38.456Z,52.38
2022-11-25T06:19:31.711Z,52.56
2022-11-25T06:22:02.069Z,52.54
2022-11-25T06:24:31.445Z,52.65
2022-11-25T06:27:06.096Z,52.49
2022-11-25T06:29:35.727Z,52.14
2022-11-25T06:32:05.118Z,52.24
2022-11-25T06:34:42.587Z,52.55
2022-11-25T06:37:21.799Z,52.43
2022-11-25T06:39:50.255Z,52.47
2022-11-25T06:42:18.688Z,52.59
2022-11-25T06:44:47.246Z,52.48
2022-11-25T06:47:15.688Z,52.36
2022-11-25T06:49:44.151Z,52.40
2022-11-25T06:52:12.829Z,52.34
2022-11-25T06:54:42.578Z,52.46
2022-11-25T06:57:12.351Z,52.42
2022-11-25T06:59:40.766Z,52.00
2022-11-25T07:02:12.113Z,52.25
2022-11-25T07:04:40.915Z,52.14
2022-11-25T07:07:09.652Z,52.39
2022-11-25T07:09:38.384Z,52.27
2022-11-25T07:12:09.008Z,52.45
2022-11-25T07:14:38.461Z,51.96
2022-11-25T07:17:11.733Z,52.30
2022-11-25T07:19:40.524Z,52.30
2022-11-25T07:22:09.035Z,52.38
2022-11-25T07:24:37.614Z,52.46
2022-11-25T07:27:06.872Z,52.19
2022-11-25T07:29:57.939Z,52.41
2022-11-25T07:32:25.153Z,52.01
2022-11-25T07:34:53.662Z,52.67
2022-11-25T07:37:21.999Z,52.18
2022-11-25T07:39:50.422Z,52.50
2022-11-25T07:42:18.791Z,52.13
2022-11-25T07:44:53.491Z,52.53
2022-11-25T07:47:42.492Z,52.33
2022-11-25T07:50:11.379Z,52.48
2022-11-25T07:52:40.828Z,52.09
2022-11-25T07:55:10.188Z,52.21
2022-11-25T07:57:38.616Z,52.25
2022-11-25T08:00:10.102Z,52.38
2022-11-25T08:02:41.788Z,52.47
2022-11-25T08:05:11.048Z,52.02
2022-11-25T08:07:39.639Z,51.95
2022-11-25T08:10:09.064Z,52.18
2022-11-25T08:12:37.446Z,52.30
2022-11-25T08:15:06.695Z,52.44
2022-11-25T08:17:36.552Z,52.25
2022-11-25T08:20:05.813Z,51.82
2022-11-25T08:22:34.183Z,52.30
2022-11-25T08:25:02.558Z,52.04
2022-11-25T08:27:30.965Z,52.15
2022-11-25T08:29:59.714Z,51.86
2022-11-25T08:32:28.145Z,52.24
2022-11-25T08:34:58.016Z,52.17
2022-11-25T08:37:26.436Z,52.44
2022-11-25T08:40:08.611Z,51.96
2022-11-25T08:42:37.448Z,52.39
2022-11-25T08:45:07.313Z,51.93
2022-11-25T08:47:36.676Z,52.02
2022-11-25T08:50:08.377Z,51.95
2022-11-25T08:52:37.388Z,51.83
2022-11-25T08:55:07.064Z,51.85
2022-11-25T08:57:35.944Z,52.07
2022-11-25T09:00:05.587Z,52.26
2022-11-25T09:02:34.169Z,52.45
2022-11-25T09:05:02.659Z,51.90
2022-11-25T09:07:33.415Z,51.95
2022-11-25T09:10:02.057Z,51.74
2022-11-25T09:12:30.972Z,51.77
2022-11-25T09:14:59.740Z,52.33
2022-11-25T09:17:28.328Z,51.99
2022-11-25T09:19:56.812Z,52.01
2022-11-25T09:22:25.316Z,52.06
2022-11-25T09:24:55.248Z,52.03
2022-11-25T09:27:23.708Z,51.80
2022-11-25T09:29:52.270Z,51.74
2022-11-25T09:32:21.326Z,51.87
2022-11-25T09:34:52.423Z,52.05
2022-11-25T09:37:20.893Z,51.94
2022-11-25T09:39:50.751Z,51.98
2022-11-25T09:42:47.199Z,51.72
2022-11-25T09:45:36.552Z,51.78
2022-11-25T09:48:16.769Z,52.24
2022-11-25T09:50:54.180Z,51.78
2022-11-25T09:53:29.230Z,52.14
2022-11-25T09:56:05.557Z,52.03
2022-11-25T09:58:38.903Z,51.63
2022-11-25T10:01:09.119Z,52.08
2022-11-25T10:03:41.023Z,52.13
2022-11-25T10:06:16.400Z,51.84
2022-11-25T10:08:46.827Z,51.73
2022-11-25T10:11:29.950Z,51.45
2022-11-25T10:14:03.658Z,51.69
2022-11-25T10:16:36.470Z,51.60
2022-11-25T10:19:12.983Z,51.58
2022-11-25T10:21:41.420Z,51.86
2022-11-25T10:24:14.515Z,51.72
2022-11-25T10:26:44.893Z,51.63
2022-11-25T10:29:24.126Z,51.89
2022-11-25T10:31:56.618Z,51.96
2022-11-25T10:34:30.035Z,52.00
2022-11-25T10:36:59.978Z,51.92
2022-11-25T10:39:31.716Z,51.86
2022-11-25T10:42:03.442Z,51.86
2022-11-25T10:44:35.454Z,51.85
2022-11-25T10:47:23.659Z,51.77
2022-11-25T10:50:01.867Z,51.84
2022-11-25T10:52:32.044Z,52.09
2022-11-25T10:55:11.506Z,51.30
2022-11-25T10:57:39.846Z,51.73
2022-11-25T11:00:26.247Z,51.40
2022-11-25T11:02:55.355Z,51.54
2022-11-25T11:05:25.579Z,51.83
2022-11-25T11:08:19.914Z,51.62
2022-11-25T11:10:52.973Z,51.78
2022-11-25T11:13:26.687Z,51.33
2022-11-25T11:15:56.460Z,51.69
2022-11-25T11:18:27.771Z,51.97
2022-11-25T11:20:58.302Z,51.33
2022-11-25T11:23:27.375Z,51.71
2022-11-25T11:26:01.431Z,51.74
2022-11-25T11:28:34.729Z,51.44
2022-11-25T11:31:07.827Z,51.28
2022-11-25T11:33:39.085Z,51.14
2022-11-25T11:36:16.999Z,51.38
2022-11-25T11:38:52.161Z,51.23
2022-11-25T11:41:28.798Z,51.46
2022-11-25T11:44:07.791Z,50.94
2022-11-25T11:46:47.075Z,50.89
2022-11-25T11:49:30.349Z,50.75
2022-11-25T11:52:05.053Z,51.24
2022-11-25T11:54:36.619Z,51.05
2022-11-25T11:57:07.734Z,50.77
2022-11-25T11:59:48.737Z,51.18
2022-11-25T12:02:40.744Z,50.97
2022-11-25T12:05:16.308Z,50.73
2022-11-25T12:08:01.145Z,51.00
2022-11-25T12:10:32.868Z,51.11
2022-11-25T12:13:07.522Z,51.15
2022-11-25T12:15:42.623Z,51.07
2022-11-25T12:18:19.934Z,51.11
2022-11-25T12:20:53.729Z,50.85
2022-11-25T12:23:27.028Z,51.23
2022-11-25T12:25:58.806Z,51.26
2022-11-25T12:28:31.035Z,51.63
2022-11-25T12:31:05.625Z,51.22
2022-11-25T12:33:44.893Z,51.50
2022-11-25T12:36:16.589Z,51.52
2022-11-25T12:38:47.729Z,51.92
2022-11-25T12:41:22.529Z,51.69
2022-11-25T12:43:52.504Z,51.69
2022-11-25T12:46:26.525Z,51.33
2022-11-25T12:48:58.200Z,51.86
2022-11-25T12:51:42.056Z,51.75
2022-11-25T12:54:21.743Z,52.05
2022-11-25T12:57:13.177Z,51.75
2022-11-25T13:00:11.288Z,51.68
2022-11-25T13:03:10.722Z,51.74
2022-11-25T13:06:05.823Z,51.50
2022-11-25T13:08:52.120Z,51.37
2022-11-25T13:11:34.524Z,51.61
2022-11-25T13:14:06.520Z,51.76
2022-11-25T13:16:35.804Z,51.97
2022-11-25T13:19:11.936Z,52.01
2022-11-25T13:22:04.396Z,52.06
2022-11-25T13:24:34.394Z,51.91
2022-11-25T13:27:05.179Z,51.80
2022-11-25T13:30:01.466Z,52.23
2022-11-25T13:32:42.184Z,51.66
2022-11-25T13:35:50.873Z,52.15
2022-11-25T13:39:00.916Z,51.66
2022-11-25T13:41:38.650Z,52.14
2022-11-25T13:44:15.799Z,51.69
2022-11-25T13:46:47.091Z,51.81
2022-11-25T13:49:25.188Z,51.69
2022-11-25T13:51:55.772Z,51.67
2022-11-25T13:54:31.656Z,51.90
2022-11-25T13:57:15.833Z,52.04
2022-11-25T13:59:52.866Z,52.10
2022-11-25T14:02:49.808Z,52.08
2022-11-25T14:05:59.676Z,52.26
2022-11-25T14:08:34.515Z,52.05
2022-11-25T14:11:35.190Z,52.34
2022-11-25T14:14:26.921Z,52.56
2022-11-25T14:17:05.697Z,52.30
2022-11-25T14:19:54.902Z,52.01
2022-11-25T14:22:35.776Z,52.00
2022-11-25T14:25:14.871Z,52.08
2022-11-25T14:27:48.840Z,52.53
2022-11-25T14:30:18.031Z,52.67
2022-11-25T14:32:53.338Z,52.37
2022-11-25T14:35:23.772Z,52.22
2022-11-25T14:37:58.030Z,52.58
2022-11-25T14:40:29.790Z,52.19
2022-11-25T14:43:04.920Z,52.16
2022-11-25T14:45:35.506Z,52.32
2022-11-25T14:48:14.689Z,52.21
2022-11-25T14:50:55.789Z,52.25
2022-11-25T14:53:25.632Z,52.54
2022-11-25T14:55:55.139Z,52.10
2022-11-25T14:58:25.227Z,52.70
2022-11-25T15:01:00.489Z,52.28
2022-11-25T15:03:29.126Z,52.57
2022-11-25T15:06:02.180Z,52.88
2022-11-25T15:08:39.563Z,52.62
2022-11-25T15:11:14.615Z,52.93
2022-11-25T15:13:46.369Z,52.81
2022-11-25T15:16:17.335Z,52.70
2022-11-25T15:18:49.841Z,53.20
2022-11-25T15:21:22.188Z,53.13
2022-11-25T15:23:50.668Z,52.92
2022-11-25T15:26:22.634Z,52.92
2022-11-25T15:28:57.213Z,53.09
2022-11-25T15:31:29.121Z,52.88
2022-11-25T15:34:00.013Z,52.79
2022-11-25T15:36:28.727Z,52.78
2022-11-25T15:39:14.824Z,53.25
2022-11-25T15:41:44.978Z,52.86
2022-11-25T15:44:21.812Z,53.07
2022-11-25T15:46:57.828Z,53.07
2022-11-25T15:49:26.306Z,53.10
2022-11-25T15:51:57.546Z,53.06
2022-11-25T15:54:27.905Z,52.85
2022-11-25T15:56:59.295Z,53.33
2022-11-25T15:59:41.488Z,53.37
2022-11-25T16:02:50.381Z,53.13
2022-11-25T16:05:26.442Z,52.95
2022-11-25T16:08:17.709Z,53.24
2022-11-25T16:11:00.518Z,53.01
2022-11-25T16:13:38.754Z,53.11
2022-11-25T16:16:24.202Z,52.77
2022-11-25T16:18:57.763Z,53.46
2022-11-25T16:21:30.389Z,53.24
2022-11-25T16:24:15.683Z,52.94
2022-11-25T16:26:51.470Z,53.04
2022-11-25T16:29:22.065Z,52.85
2022-11-25T16:31:52.204Z,53.16
2022-11-25T16:34:22.035Z,53.26
2022-11-25T16:36:50.651Z,53.23
2022-11-25T16:39:19.054Z,53.00
2022-11-25T16:41:56.348Z,53.05
2022-11-25T16:44:25.704Z,53.11
2022-11-25T16:46:55.958Z,53.02
2022-11-25T16:49:25.688Z,53.08
2022-11-25T16:51:54.361Z,53.01
2022-11-25T16:54:24.118Z,53.53
2022-11-25T16:56:54.288Z,53.21
2022-11-25T16:59:29.883Z,53.52
2022-11-25T17:02:03.770Z,53.39
2022-11-25T17:04:32.556Z,53.83
2022-11-25T17:07:31.101Z,53.45
2022-11-25T17:09:49.333Z,53.51
2022-11-25T17:12:20.038Z,53.57
2022-11-25T17:14:49.592Z,53.78
2022-11-25T17:17:24.755Z,53.85
2022-11-25T17:19:53.955Z,53.37
2022-11-25T17:22:24.198Z,53.62
2022-11-25T17:24:53.020Z,53.77
2022-11-25T17:27:23.738Z,53.66
2022-11-25T17:29:54.295Z,53.64
2022-11-25T17:32:25.361Z,53.61
2022-11-25T17:34:54.760Z,53.63
2022-11-25T17:37:24.613Z,53.36
2022-11-25T17:39:53.851Z,53.37
2022-11-25T17:42:24.911Z,53.39
2022-11-25T17:44:54.503Z,53.48
2022-11-25T17:47:24.270Z,53.66
2022-11-25T17:49:53.113Z,53.32
2022-11-25T17:52:21.423Z,53.29
2022-11-25T17:54:49.790Z,53.27
2022-11-25T17:57:21.503Z,53.42
2022-11-25T17:59:50.679Z,53.42
2022-11-25T18:02:20.757Z,53.62
2022-11-25T18:04:50.906Z,53.73
2022-11-25T18:07:19.600Z,53.83
2022-11-25T18:09:48.092Z,53.43
2022-11-25T18:12:18.597Z,53.18
2022-11-25T18:14:47.032Z,53.66
2022-11-25T18:17:18.743Z,53.74
2022-11-25T18:19:54.628Z,53.93
2022-11-25T18:22:24.951Z,53.58
2022-11-25T18:24:53.982Z,53.16
2022-11-25T18:27:24.464Z,53.48
2022-11-25T18:29:53.716Z,53.78
2022-11-25T18:32:23.440Z,53.55
2022-11-25T18:34:52.697Z,53.52
2022-11-25T18:37:21.510Z,53.61
2022-11-25T18:39:51.313Z,53.57
2022-11-25T18:42:24.343Z,53.83
2022-11-25T18:44:53.131Z,53.86
2022-11-25T18:47:21.610Z,53.17
2022-11-25T18:49:55.163Z,53.25
2022-11-25T18:52:25.127Z,53.31
2022-11-25T18:54:54.819Z,53.71
2022-11-25T18:57:23.172Z,53.77
2022-11-25T19:00:24.530Z,53.34
2022-11-25T19:02:39.863Z,53.40
2022-11-25T19:05:19.867Z,53.57
2022-11-25T19:07:49.322Z,53.35
2022-11-25T19:10:19.568Z,53.64
2022-11-25T19:12:51.002Z,53.69
2022-11-25T19:15:21.654Z,53.67
2022-11-25T19:17:52.733Z,53.80
2022-11-25T19:20:22.977Z,53.55
2022-11-25T19:22:51.501Z,53.86
2022-11-25T19:25:21.365Z,53.40
2022-11-25T19:27:53.785Z,53.74
2022-11-25T19:30:55.917Z,53.30
2022-11-25T19:33:27.316Z,53.37
2022-11-25T19:35:55.872Z,53.47
2022-11-25T19:38:26.246Z,53.56
2022-11-25T19:40:57.184Z,53.41
2022-11-25T19:43:27.198Z,53.61
2022-11-25T19:45:56.283Z,53.23
2022-11-25T19:48:27.118Z,53.04
2022-11-25T19:51:01.889Z,53.44
2022-11-25T19:53:33.897Z,53.58
2022-11-25T19:56:05.122Z,53.56
2022-11-25T19:58:33.676Z,53.66
2022-11-25T20:01:03.794Z,53.73
2022-11-25T20:03:34.376Z,53.43
2022-11-25T20:06:02.832Z,53.47
2022-11-25T20:08:31.295Z,53.29
2022-11-25T20:10:59.745Z,53.29
2022-11-25T20:13:29.574Z,53.28
2022-11-25T20:15:59.507Z,53.57
2022-11-25T20:18:28.564Z,53.22
2022-11-25T20:21:01.680Z,53.51
2022-11-25T20:23:32.180Z,53.56
2022-11-25T20:26:00.738Z,53.58
2022-11-25T20:28:31.062Z,53.16
2022-11-25T20:30:59.997Z,53.14
2022-11-25T20:33:28.819Z,53.59
2022-11-25T20:36:06.435Z,53.29
2022-11-25T20:38:36.584Z,53.72
2022-11-25T20:41:05.552Z,53.57
2022-11-25T20:43:38.679Z,53.31
2022-11-25T20:46:10.709Z,53.44
2022-11-25T20:48:39.283Z,53.39
2022-11-25T20:51:11.360Z,53.28
2022-11-25T20:53:40.299Z,53.37
2022-11-25T20:56:10.755Z,53.29
2022-11-25T20:58:40.701Z,53.28
2022-11-25T21:01:09.545Z,53.23
2022-11-25T21:03:40.528Z,53.30
2022-11-25T21:06:19.540Z,52.96
2022-11-25T21:08:49.185Z,53.18
2022-11-25T21:11:18.177Z,53.55
2022-11-25T21:13:48.590Z,53.47
2022-11-25T21:16:17.053Z,53.59
2022-11-25T21:18:46.287Z,53.09
2022-11-25T21:21:19.291Z,53.58
2022-11-25T21:23:48.752Z,53.30
2022-11-25T21:26:22.789Z,52.90
2022-11-25T21:28:53.552Z,53.47
2022-11-25T21:31:23.507Z,53.38
2022-11-25T21:33:52.373Z,53.61
2022-11-25T21:36:22.696Z,53.34
2022-11-25T21:38:53.925Z,53.46
2022-11-25T21:41:22.886Z,53.50
2022-11-25T21:43:52.615Z,53.07
2022-11-25T21:46:22.494Z,52.96
2022-11-25T21:48:50.904Z,53.38
2022-11-25T21:51:23.921Z,53.33
2022-11-25T21:53:52.619Z,53.33
2022-11-25T21:56:26.372Z,53.31
2022-11-25T21:58:56.391Z,53.44
2022-11-25T22:01:25.300Z,53.13
2022-11-25T22:03:53.981Z,52.87
2022-11-25T22:06:24.538Z,53.53
2022-11-25T22:08:52.894Z,53.37
2022-11-25T22:11:23.782Z,53.30
2022-11-25T22:13:52.359Z,53.28
2022-11-25T22:16:25.879Z,53.33
2022-11-25T22:18:54.397Z,53.45
2022-11-25T22:21:22.822Z,53.16
2022-11-25T22:23:51.235Z,53.41
2022-11-25T22:26:23.715Z,53.16
2022-11-25T22:28:52.892Z,53.28
2022-11-25T22:31:23.187Z,53.22
2022-11-25T22:33:51.804Z,53.01
2022-11-25T22:36:32.960Z,53.31
2022-11-25T22:39:11.198Z,52.88
2022-11-25T22:41:39.477Z,53.35
2022-11-25T22:44:11.034Z,52.87
2022-11-25T22:46:41.083Z,53.47
2022-11-25T22:49:25.133Z,53.01
2022-11-25T22:51:53.587Z,52.97
2022-11-25T22:54:23.106Z,53.04
2022-11-25T22:56:51.628Z,53.08
2022-11-25T22:59:19.953Z,53.41
2022-11-25T23:01:49.783Z,53.42
2022-11-25T23:04:19.850Z,53.13
2022-11-25T23:06:48.703Z,52.91
2022-11-25T23:09:18.547Z,52.91
2022-11-25T23:11:47.697Z,52.83
2022-11-25T23:14:16.380Z,52.98
2022-11-25T23:16:44.871Z,53.18
2022-11-25T23:19:16.634Z,52.99
2022-11-25T23:21:45.633Z,53.44
2022-11-25T23:24:15.735Z,53.17
2022-11-25T23:26:44.155Z,53.34
2022-11-25T23:29:12.455Z,53.19
2022-11-25T23:31:41.003Z,52.86
2022-11-25T23:34:12.397Z,52.97
2022-11-25T23:36:45.622Z,52.99
2022-11-25T23:39:20.639Z,52.86
2022-11-25T23:41:49.040Z,53.20
2022-11-25T23:44:23.438Z,53.15
2022-11-25T23:46:52.584Z,52.99
2022-11-25T23:49:24.093Z,53.20
2022-11-25T23:51:57.403Z,52.92
2022-11-25T23:54:31.425Z,53.02
2022-11-25T23:57:01.158Z,53.14
2022-11-25T23:59:31.123Z,53.17
